El Paso, TX

6:27 PM MDT on August 29, 2016 (GMT -0600)
MesoWest | | Change Station

Elev 3907 ft 31.87 °N, 106.41 °W | Updated 1 hour ago

Mostly Cloudy
Mostly Cloudy
90.0 °F
Feels Like 90.0 °F
N
1.0
Wind Variable Wind from SW
Gusts 0.0 mph

Today
High -- | Low -- °F
--% Chance of Precip.
Yesterday
High -- | Low -- °F
Precip. -- in
Pressure 30.07 in
Visibility 10.0 miles
Clouds Few 6500 ft
Few 11000 ft
Scattered Clouds 14000 ft
Mostly Cloudy 25000 ft
Dew Point Not available.
Humidity Not available.
Rainfall in
Snow Depth Not available.
6:39 AM 7:32 PM
Waning Crescent, 6% visible
SPECI KELP 300000Z 09013KT 10SM FEW065TCU FEW110 SCT140 BKN250 29/13 A3007 RMK AO2 LTG DSNT NW TSE2359 T02890133
Pressure 30.07 in
Visibility 10.0 miles
Clouds Few 6500 ft
Few 11000 ft
Scattered Clouds 14000 ft
Mostly Cloudy 25000 ft
Dew Point Not available.
Humidity Not available.
Rainfall in
Snow Depth Not available.
6:39 AM 7:32 PM
Waning Crescent, 6% visible
SPECI KELP 300000Z 09013KT 10SM FEW065TCU FEW110 SCT140 BKN250 29/13 A3007 RMK AO2 LTG DSNT NW TSE2359 T02890133

10-Day Weather Forecast

Almanac

Astronomy

Aug. 29, 2016 Rise Set
Actual Time
Civil Twilight
Nautical Twilight
Astronomical Twilight
Moon
Length of Visible Light
Length of Day
Tomorrow will be .
, % of the Moon is Illuminated

Today's Extremes

State Highs State Lows

Community

WunderPhotos

Upload Photos

1,935,703 photos uploaded!

WunderBlog® & News

Nearby

Air Quality

  Air Quality AQ Index Pollutant
Not available.

Snow Depth

Station Depth Elevation

Earthquake Activity

City Distance Mag. Time & Date
Minimum magnitude displayed is 2.5.

Coastal Water Temperatures

Place Temperature

Stations

Nearby Weather Stations

Station Location Temp. Windchill Dew Point Humidity Wind Precip. Elev Updated Type
                   

Watches & Warnings

There are currently no watches in effect.